Flight Track Log - Related Links

Times and Time Zones

All times are in EDT time to prevent confusion due to time zone crossing. See the SWA1798 flight status page for this flight to view local times or setup timezone preferences in your user account.

Time Position Orientation Groundspeed Altitude Reporting Facility
EDT Latitude Longitude Course Direction KTS MPH feet Rate Location/Type
Sat 08:06:56 PM 39.8833 -104.6000 97° East 164 189 6,900  Level Denver TRACON
Sat 08:07:56 PM 39.8500 -104.5167 117° Southeast 237 273 8,700 2,300 Climbing Denver TRACON
Sat 08:08:56 PM 39.8167 -104.4167 113° Southeast 306 352 11,500 2,649 Climbing Denver TRACON
Sat 08:09:13 PM 39.8122 -104.3992 108° East 307 353 12,100 3,231 Climbing Denver Center
Sat 08:10:14 PM 39.8003 -104.2586 96° East 367 422 15,700 3,463 Climbing Denver Center
Sat 08:11:16 PM 39.7961 -104.1225 92° East 378 435 19,200 3,122 Climbing Denver Center
Sat 08:12:00 PM 39.7594 -103.9103 97° East  Level FlightAware Approximate
Sat 08:12:17 PM 39.7922 -103.9806 92° East 405 466 22,100  Level Denver Center
Sat 08:13:19 PM 39.7875 -103.8278 92° East 412 474 24,700 2,439 Climbing Denver Center
Sat 08:14:20 PM 39.7836 -103.6747 92° East 416 479 27,100 2,213 Climbing Denver Center
Sat 08:15:21 PM 39.7786 -103.5128 92° East 441 507 29,200 1,951 Climbing Denver Center
Sat 08:16:23 PM 39.7731 -103.3461 92° East 455 524 31,100 1,951 Climbing Denver Center
Sat 08:17:24 PM 39.7669 -103.1764 93° East 464 534 33,200 1,869 Climbing Denver Center
Sat 08:18:25 PM 39.7619 -103.0086 92° East 462 532 34,900 1,561 Climbing Denver Center
Sat 08:19:27 PM 39.7556 -102.8394 93° East 465 535 36,400 1,366 Climbing Denver Center
Sat 08:20:28 PM 39.7472 -102.6433 93° East 479 551 37,700 1,073 Climbing Denver Center
Sat 08:21:30 PM 39.7406 -102.4792 93° East 479 551 38,600 634 Climbing Denver Center
Sat 08:22:31 PM 39.7342 -102.3114 93° East 486 559 39,000 197 Climbing Denver Center
Sat 08:23:32 PM 39.7256 -102.1125 93° East 493 567 39,000  Level Denver Center
Sat 08:24:34 PM 39.7181 -101.9458 93° East 487 560 39,000  Level Denver Center
Sat 08:25:35 PM 39.7103 -101.7539 93° East 479 551 39,000  Level Denver Center
Sat 08:26:37 PM 39.7028 -101.5894 93° East 478 550 39,000  Level Denver Center
Sat 08:27:38 PM 39.6922 -101.3975 94° East 478 550 39,000  Level Denver Center
Sat 08:28:39 PM 39.6833 -101.2339 94° East 477 549 39,000  Level Denver Center
Sat 08:29:41 PM 39.6750 -101.0703 94° East 477 549 39,000  Level Denver Center
Sat 08:30:42 PM 39.6647 -100.8769 94° East 481 554 39,000  Level Denver Center
Sat 08:31:44 PM 39.6556 -100.7125 94° East 481 554 39,000  Level Denver Center
Sat 08:32:45 PM 39.6439 -100.5197 94° East 480 552 39,000  Level Denver Center
Sat 08:33:46 PM 39.6342 -100.3533 94° East 484 557 39,000  Level Denver Center
Sat 08:34:48 PM 39.6242 -100.1872 94° East 483 556 39,000  Level Denver Center
Sat 08:35:49 PM 39.6125 -99.9931 94° East 484 557 39,000  Level Denver Center
Sat 08:36:50 PM 39.6014 -99.8142 95° East 487 560 39,000  Level Denver Center
Sat 08:37:52 PM 39.5894 -99.6408 95° East 484 557 39,000  Level Denver Center
Sat 08:39:05 PM 39.5767 -99.4342 95° East 480 552 39,000  Level Denver Center
Sat 08:40:07 PM 39.5653 -99.2631 95° East 479 551 39,000  Level Denver Center
Sat 08:41:08 PM 39.5531 -99.0928 95° East 476 548 39,000  Level Denver Center
Sat 08:42:09 PM 39.5408 -98.9222 95° East 476 548 39,000  Level Denver Center
Sat 08:43:11 PM 39.5281 -98.7531 96° East 475 547 39,000  Level Denver Center
Sat 08:44:12 PM 39.5125 -98.5475 96° East 479 551 39,000  Level Denver Center
Sat 08:45:13 PM 39.5003 -98.3742 95° East 482 555 39,000  Level Denver Center
Sat 08:46:15 PM 39.4861 -98.2033 96° East 481 554 39,000  Level Denver Center
Sat 08:47:25 PM 39.4706 -98.0161 96° East 481 554 39,000  Level Kansas City Center
Sat 08:48:29 PM 39.4569 -97.8183 95° East 490 564 39,000  Level Kansas City Center
Sat 08:49:30 PM 39.4431 -97.6458 96° East 484 557 39,000  Level Kansas City Center
Sat 08:50:31 PM 39.4256 -97.4647 97° East 478 550 39,000  Level Kansas City Center
Sat 08:51:31 PM 39.4117 -97.2997 96° East 480 552 39,000  Level Kansas City Center
Sat 08:52:34 PM 39.3978 -97.1356 96° East 481 554 39,000  Level Kansas City Center
Sat 08:53:34 PM 39.3814 -96.9439 96° East 480 552 39,000  Level Kansas City Center
Sat 08:54:35 PM 39.3661 -96.7803 97° East 480 552 39,000  Level Kansas City Center
Sat 08:55:36 PM 39.3506 -96.6153 97° East 482 555 39,000  Level Kansas City Center
Sat 08:56:36 PM 39.3347 -96.4386 97° East 483 556 39,000  Level Kansas City Center
Sat 08:57:38 PM 39.3194 -96.2672 97° East 481 554 39,000  Level Kansas City Center
Sat 08:58:38 PM 39.3014 -96.0942 98° East 484 557 39,000  Level Kansas City Center
Sat 08:59:39 PM 39.2828 -95.9019 97° East 485 558 39,000  Level Kansas City Center
Sat 09:00:41 PM 39.2672 -95.7372 97° East 484 557 39,000  Level Kansas City Center
Sat 09:01:42 PM 39.2481 -95.5442 97° East 485 558 39,000  Level Kansas City Center
Sat 09:02:43 PM 39.2317 -95.3797 97° East 483 556 39,000  Level Kansas City Center
Sat 09:03:44 PM 39.2119 -95.1953 98° East 484 557 39,000  Level Kansas City Center
Sat 09:04:45 PM 39.1953 -95.0381 98° East 482 555 39,000  Level Kansas City Center
Sat 09:05:45 PM 39.1778 -94.8750 98° East 481 554 39,000  Level Kansas City Center
Sat 09:06:47 PM 39.1575 -94.6831 98° East 483 556 39,000  Level Kansas City Center
Sat 09:07:49 PM 39.1394 -94.5203 98° East 482 555 39,000  Level Kansas City Center
Sat 09:08:48 PM 39.1181 -94.3289 98° East 483 556 39,000  Level Kansas City Center
Sat 09:09:49 PM 39.0994 -94.1644 98° East 484 557 39,000  Level Kansas City Center
Sat 09:10:51 PM 39.0756 -94.0025 101° East 483 556 39,000  Level Kansas City Center
Sat 09:11:52 PM 39.0439 -93.8139 102° East 482 555 39,000  Level Kansas City Center
Sat 09:12:52 PM 39.0183 -93.6522 101° East 483 556 39,000  Level Kansas City Center
Sat 09:13:55 PM 38.9906 -93.4786 102° East 481 554 39,000  Level Kansas City Center
Sat 09:14:56 PM 38.9636 -93.3100 102° East 480 552 39,000  Level Kansas City Center
Sat 09:15:57 PM 38.9353 -93.1408 102° East 482 555 39,000 -393 Level Kansas City Center
Sat 09:16:58 PM 38.9064 -92.9725 102° East 480 552 38,200 -1,361 Descending Kansas City Center
Sat 09:17:56 PM 38.8769 -92.8019 102° East 484 557 36,300 -2,521 Descending Kansas City Center
Sat 09:18:57 PM 38.8492 -92.6344 102° East 481 554 33,200 -2,902 Descending Kansas City Center
Sat 09:19:58 PM 38.8200 -92.4644 102° East 482 555 30,400 -2,585 Descending Kansas City Center
Sat 09:21:00 PM 38.7908 -92.3000 103° East 479 551 27,900 -2,304 Descending Kansas City Center
Sat 09:22:03 PM 38.7631 -92.1422 103° East 461 531 25,600 -2,195 Descending Kansas City Center
Sat 09:23:03 PM 38.7358 -91.9925 103° East 437 503 23,400 -2,164 Descending Kansas City Center
Sat 09:24:05 PM 38.7103 -91.8492 103° East 418 481 21,200 -2,100 Descending Kansas City Center
Sat 09:25:03 PM 38.6906 -91.7094 100° East 404 465 19,200 -2,059 Descending Kansas City Center
Sat 09:25:47 PM 38.6950 -91.5478 88° East 377 434 17,700 -1,969 Descending FAA TRACON SMA TRACON (SMA)
Sat 09:26:07 PM 38.6944 -91.4964 91° East 375 432 17,100 -1,950 Descending FAA TRACON SMA TRACON (SMA)
Sat 09:26:27 PM 38.6933 -91.4556 92° East 373 429 16,400 -2,100 Descending FAA TRACON SMA TRACON (SMA)
Sat 09:26:47 PM 38.6939 -91.4153 89° East 371 427 15,700 -2,250 Descending FAA TRACON SMA TRACON (SMA)
Sat 09:27:07 PM 38.6925 -91.3647 92° East 369 425 14,900 -2,250 Descending FAA TRACON SMA TRACON (SMA)
Sat 09:27:27 PM 38.6933 -91.3250 88° East 364 419 14,200 -2,250 Descending FAA TRACON SMA TRACON (SMA)
Sat 09:27:47 PM 38.6936 -91.2761 90° East 360 414 13,400 -2,100 Descending FAA TRACON SMA TRACON (SMA)
Sat 09:28:07 PM 38.6925 -91.2372 92° East 356 410 12,800 -1,800 Descending FAA TRACON SMA TRACON (SMA)
Sat 09:28:27 PM 38.6936 -91.1986 88° East 353 406 12,200 -1,950 Descending FAA TRACON SMA TRACON (SMA)
Sat 09:28:47 PM 38.6928 -91.1511 91° East 350 403 11,500 -1,950 Descending FAA TRACON SMA TRACON (SMA)
Sat 09:29:07 PM 38.6931 -91.1131 89° East 346 398 10,900 -1,800 Descending FAA TRACON SMA TRACON (SMA)
Sat 09:29:27 PM 38.6956 -91.0764 85° East 341 392 10,300 -1,350 Descending FAA TRACON SMA TRACON (SMA)
Sat 09:29:47 PM 38.6983 -91.0317 85° East 331 381 10,000 -900 Descending FAA TRACON SMA TRACON (SMA)
Sat 09:30:07 PM 38.7047 -90.9983 76° East 316 364 9,700 -1,024 Descending FAA TRACON SMA TRACON (SMA)
Sat 09:30:28 PM 38.7103 -90.9653 78° East 310 357 9,300 -1,500 Descending FAA TRACON SMA TRACON (SMA)
Sat 09:30:47 PM 38.7153 -90.9242 81° East 306 352 8,700 -1,538 Descending FAA TRACON SMA TRACON (SMA)
Sat 09:31:07 PM 38.7208 -90.8917 78° East 303 349 8,300 -1,050 Descending FAA TRACON SMA TRACON (SMA)
Sat 09:31:27 PM 38.7261 -90.8597 78° East 300 345 8,000 -1,200 Descending FAA TRACON SMA TRACON (SMA)
Sat 09:31:47 PM 38.7319 -90.8208 79° East 293 337 7,500 -1,350 Descending FAA TRACON SMA TRACON (SMA)
Sat 09:32:07 PM 38.7378 -90.7900 76° East 289 333 7,100 -900 Descending FAA TRACON SMA TRACON (SMA)
Sat 09:32:27 PM 38.7417 -90.7597 81° East 282 325 6,900 -750 Descending FAA TRACON SMA TRACON (SMA)
Sat 09:32:47 PM 38.7467 -90.7236 80° East 270 311 6,600 -1,350 Descending FAA TRACON SMA TRACON (SMA)
Sat 09:33:07 PM 38.7511 -90.6961 78° East 262 302 6,000 -1,800 Descending FAA TRACON SMA TRACON (SMA)
Sat 09:33:27 PM 38.7564 -90.6686 76° East 259 298 5,400 -1,950 Descending FAA TRACON SMA TRACON (SMA)
Sat 09:33:47 PM 38.7617 -90.6344 79° East 255 293 4,700 -1,800 Descending FAA TRACON SMA TRACON (SMA)
Sat 09:34:07 PM 38.7658 -90.6067 79° East 255 293 4,200 -1,050 Descending FAA TRACON SMA TRACON (SMA)
Sat 09:34:27 PM 38.7694 -90.5814 80° East 243 280 4,000 -750 Descending FAA TRACON SMA TRACON (SMA)
Sat 09:34:47 PM 38.7733 -90.5578 78° East 226 260 3,700 -750 Descending FAA TRACON SMA TRACON (SMA)
Sat 09:35:07 PM 38.7781 -90.5300 78° East 208 239 3,500 -837 Descending FAA TRACON SMA TRACON (SMA)
Sat 09:35:30 PM 38.7817 -90.5050 79° East 188 216 3,100 -977 Descending FAA TRACON SMA TRACON (SMA)
Sat 09:35:50 PM 38.7847 -90.4858 78° East 180 207 2,800 -973 Descending FAA TRACON SMA TRACON (SMA)
Sat 09:36:07 PM 38.7872 -90.4675 80° East 174 200 2,500 -811 Descending FAA TRACON SMA TRACON (SMA)
Sat 09:36:27 PM 38.7906 -90.4492 77° East 171 197 2,300 -300 Descending FAA TRACON SMA TRACON (SMA)
Sat 09:36:47 PM 38.7925 -90.4306 82° East 172 198 2,300 -293 Level FAA TRACON SMA TRACON (SMA)
Sat 09:37:08 PM 38.7886 -90.4094 103° East 163 188 2,100 -750 Descending FAA TRACON SMA TRACON (SMA)
Sat 09:37:27 PM 38.7831 -90.3947 116° Southeast 152 175 1,800 -769 Descending FAA TRACON SMA TRACON (SMA)
Sat 09:37:47 PM 38.7778 -90.3819 118° Southeast 137 158 1,600 -585 Descending FAA TRACON SMA TRACON (SMA)
Sat 09:38:08 PM 38.7706 -90.3675 123° Southeast 125 144 1,400 -600 Descending FAA TRACON SMA TRACON (SMA)
Sat 09:38:27 PM 38.7650 -90.3567 123° Southeast 120 138 1,200 -615 Descending FAA TRACON SMA TRACON (SMA)
Sat 09:38:47 PM 38.7592 -90.3453 123° Southeast 122 140 1,000 -600 Descending FAA TRACON SMA TRACON (SMA)
Sat 09:39:07 PM 38.7533 -90.3336 123° Southeast 124 143 800 -600 Descending FAA TRACON SMA TRACON (SMA)
Sat 09:39:27 PM 38.7492 -90.3247 121° Southeast 125 144 600 -600 Descending FAA TRACON SMA TRACON (SMA)

Login

Don't have an account? Register now (free) for customized features, flight alerts, and more!